sensor_id;sensor_type;location;lat;lon;timestamp;pressure;altitude;pressure_sealevel;temperature;humidity
50282;BME280;36176;51.506;10.272;2022-09-09T00:30:17;98932.75;;;12.79;99.64
50282;BME280;36176;51.506;10.272;2022-09-09T00:33:13;98930.81;;;12.81;99.39
50282;BME280;36176;51.506;10.272;2022-09-09T00:35:54;98928.94;;;12.83;99.82
50282;BME280;36176;51.506;10.272;2022-09-09T00:38:29;98925.34;;;12.84;99.40
50282;BME280;36176;51.506;10.272;2022-09-09T00:41:11;98928.00;;;12.84;99.41
50282;BME280;36176;51.506;10.272;2022-09-09T00:43:49;98934.91;;;12.86;99.46
50282;BME280;36176;51.506;10.272;2022-09-09T00:49:32;98938.50;;;12.85;99.27
50282;BME280;36176;51.506;10.272;2022-09-09T00:55:16;98939.56;;;12.83;99.42
50282;BME280;36176;51.506;10.272;2022-09-09T00:57:53;98934.06;;;12.86;99.65
50282;BME280;36176;51.506;10.272;2022-09-09T01:00:22;98927.56;;;12.90;99.53
50282;BME280;36176;51.506;10.272;2022-09-09T01:11:21;98923.00;;;12.92;100.00
50282;BME280;36176;51.506;10.272;2022-09-09T01:13:55;98922.16;;;12.91;100.00
50282;BME280;36176;51.506;10.272;2022-09-09T01:16:29;98919.59;;;12.90;99.72
50282;BME280;36176;51.506;10.272;2022-09-09T01:18:58;98918.97;;;12.86;99.82
50282;BME280;36176;51.506;10.272;2022-09-09T01:24:24;98921.91;;;12.82;100.00
50282;BME280;36176;51.506;10.272;2022-09-09T01:26:58;98925.41;;;12.82;100.00
50282;BME280;36176;51.506;10.272;2022-09-09T01:29:30;98928.06;;;12.82;100.00
50282;BME280;36176;51.506;10.272;2022-09-09T01:35:32;98933.59;;;12.79;99.38
50282;BME280;36176;51.506;10.272;2022-09-09T01:38:03;98923.16;;;12.76;100.00
50282;BME280;36176;51.506;10.272;2022-09-09T01:40:31;98925.91;;;12.74;100.00
50282;BME280;36176;51.506;10.272;2022-09-09T01:42:59;98922.00;;;12.80;100.00
50282;BME280;36176;51.506;10.272;2022-09-09T01:45:27;98922.66;;;12.84;100.00
50282;BME280;36176;51.506;10.272;2022-09-09T01:47:58;98920.56;;;12.89;100.00
50282;BME280;36176;51.506;10.272;2022-09-09T01:50:26;98919.50;;;12.91;100.00
50282;BME280;36176;51.506;10.272;2022-09-09T01:53:02;98920.13;;;12.95;100.00
50282;BME280;36176;51.506;10.272;2022-09-09T01:55:39;98909.63;;;12.93;100.00
50282;BME280;36176;51.506;10.272;2022-09-09T02:04:33;98915.44;;;13.13;100.00
50282;BME280;36176;51.506;10.272;2022-09-09T02:07:57;98919.16;;;13.23;100.00
50282;BME280;36176;51.506;10.272;2022-09-09T02:14:35;98920.34;;;13.59;100.00
50282;BME280;36176;51.506;10.272;2022-09-09T02:17:18;98921.84;;;13.76;98.92
50282;BME280;36176;51.506;10.272;2022-09-09T02:19:58;98920.03;;;13.89;98.35
50282;BME280;36176;51.506;10.272;2022-09-09T02:22:31;98923.22;;;13.94;97.69
50282;BME280;36176;51.506;10.272;2022-09-09T02:25:08;98924.72;;;13.98;97.63
50282;BME280;36176;51.506;10.272;2022-09-09T02:27:49;98932.50;;;14.01;97.03
50282;BME280;36176;51.506;10.272;2022-09-09T02:30:20;98933.25;;;14.03;97.02
50282;BME280;36176;51.506;10.272;2022-09-09T02:32:50;98926.00;;;14.06;96.62
50282;BME280;36176;51.506;10.272;2022-09-09T02:35:28;98923.66;;;14.14;96.63
50282;BME280;36176;51.506;10.272;2022-09-09T02:38:20;98917.75;;;14.21;96.16
50282;BME280;36176;51.506;10.272;2022-09-09T02:40:57;98924.28;;;14.30;95.84
50282;BME280;36176;51.506;10.272;2022-09-09T02:43:35;98924.03;;;14.33;95.67
50282;BME280;36176;51.506;10.272;2022-09-09T02:49:32;98906.13;;;14.35;95.88
50282;BME280;36176;51.506;10.272;2022-09-09T02:52:15;98915.09;;;14.34;95.83
50282;BME280;36176;51.506;10.272;2022-09-09T02:54:54;98923.94;;;14.35;95.43
50282;BME280;36176;51.506;10.272;2022-09-09T02:57:30;98926.47;;;14.36;94.49
50282;BME280;36176;51.506;10.272;2022-09-09T02:59:59;98925.53;;;14.37;94.61
50282;BME280;36176;51.506;10.272;2022-09-09T03:02:50;98929.03;;;14.38;93.82
50282;BME280;36176;51.506;10.272;2022-09-09T03:05:21;98925.41;;;14.39;94.12
50282;BME280;36176;51.506;10.272;2022-09-09T03:08:12;98926.69;;;14.33;94.13
50282;BME280;36176;51.506;10.272;2022-09-09T03:11:05;98929.81;;;14.27;94.16
50282;BME280;36176;51.506;10.272;2022-09-09T03:13:33;98935.47;;;14.22;94.52
50282;BME280;36176;51.506;10.272;2022-09-09T03:16:03;98924.69;;;14.24;94.48
50282;BME280;36176;51.506;10.272;2022-09-09T03:18:31;98923.00;;;14.23;94.46
50282;BME280;36176;51.506;10.272;2022-09-09T03:21:01;98923.22;;;14.20;93.93
50282;BME280;36176;51.506;10.272;2022-09-09T03:23:29;98923.94;;;14.22;94.53
50282;BME280;36176;51.506;10.272;2022-09-09T03:26:19;98919.34;;;14.24;93.78
50282;BME280;36176;51.506;10.272;2022-09-09T03:29:08;98918.94;;;14.30;94.24
50282;BME280;36176;51.506;10.272;2022-09-09T03:31:57;98923.94;;;14.35;93.75
50282;BME280;36176;51.506;10.272;2022-09-09T03:34:25;98925.53;;;14.37;92.94
50282;BME280;36176;51.506;10.272;2022-09-09T03:36:52;98925.06;;;14.43;93.10
50282;BME280;36176;51.506;10.272;2022-09-09T03:39:20;98924.88;;;14.46;92.71
50282;BME280;36176;51.506;10.272;2022-09-09T03:41:47;98927.09;;;14.53;92.40
50282;BME280;36176;51.506;10.272;2022-09-09T03:44:15;98924.88;;;14.59;91.79
50282;BME280;36176;51.506;10.272;2022-09-09T03:46:43;98933.28;;;14.66;91.70
50282;BME280;36176;51.506;10.272;2022-09-09T03:49:10;98933.03;;;14.69;91.51
50282;BME280;36176;51.506;10.272;2022-09-09T03:51:37;98926.78;;;14.70;91.26
50282;BME280;36176;51.506;10.272;2022-09-09T03:54:05;98916.09;;;14.70;90.76
50282;BME280;36176;51.506;10.272;2022-09-09T03:56:35;98920.47;;;14.71;90.61
50282;BME280;36176;51.506;10.272;2022-09-09T03:59:03;98913.19;;;14.73;91.32
50282;BME280;36176;51.506;10.272;2022-09-09T04:01:31;98912.22;;;14.74;90.44
50282;BME280;36176;51.506;10.272;2022-09-09T04:03:58;98906.69;;;14.77;90.54
50282;BME280;36176;51.506;10.272;2022-09-09T04:06:25;98905.63;;;14.80;91.27
50282;BME280;36176;51.506;10.272;2022-09-09T04:09:52;98910.06;;;14.79;90.89
50282;BME280;36176;51.506;10.272;2022-09-09T04:36:17;98924.88;;;14.46;90.79
50282;BME280;36176;51.506;10.272;2022-09-09T04:39:09;98917.81;;;14.45;91.06
50282;BME280;36176;51.506;10.272;2022-09-09T04:41:58;98914.41;;;14.43;90.95
50282;BME280;36176;51.506;10.272;2022-09-09T04:56:36;98913.28;;;14.35;90.99
50282;BME280;36176;51.506;10.272;2022-09-09T04:59:13;98920.94;;;14.39;90.61
50282;BME280;36176;51.506;10.272;2022-09-09T05:01:57;98918.81;;;14.44;90.34
50282;BME280;36176;51.506;10.272;2022-09-09T05:04:27;98921.88;;;14.51;90.09
50282;BME280;36176;51.506;10.272;2022-09-09T05:06:55;98932.25;;;14.56;89.67
50282;BME280;36176;51.506;10.272;2022-09-09T05:09:23;98926.47;;;14.62;89.99
50282;BME280;36176;51.506;10.272;2022-09-09T05:11:50;98925.28;;;14.66;89.92
50282;BME280;36176;51.506;10.272;2022-09-09T05:14:18;98925.78;;;14.71;90.13
50282;BME280;36176;51.506;10.272;2022-09-09T05:16:45;98931.88;;;14.73;90.39
50282;BME280;36176;51.506;10.272;2022-09-09T05:19:21;98938.69;;;14.77;90.39
50282;BME280;36176;51.506;10.272;2022-09-09T05:21:54;98942.72;;;14.83;90.12
50282;BME280;36176;51.506;10.272;2022-09-09T05:24:22;98938.88;;;14.87;89.50
50282;BME280;36176;51.506;10.272;2022-09-09T05:26:56;98936.81;;;14.91;90.37
50282;BME280;36176;51.506;10.272;2022-09-09T05:29:25;98943.13;;;14.89;89.72
50282;BME280;36176;51.506;10.272;2022-09-09T05:32:07;98932.66;;;14.86;89.40
50282;BME280;36176;51.506;10.272;2022-09-09T05:34:41;98943.97;;;14.90;89.63
50282;BME280;36176;51.506;10.272;2022-09-09T05:37:09;98946.00;;;14.86;89.54
50282;BME280;36176;51.506;10.272;2022-09-09T05:39:42;98946.22;;;14.83;90.15
50282;BME280;36176;51.506;10.272;2022-09-09T05:42:29;98953.16;;;14.86;89.60
50282;BME280;36176;51.506;10.272;2022-09-09T05:45:29;98948.00;;;14.96;89.94
50282;BME280;36176;51.506;10.272;2022-09-09T05:47:57;98950.63;;;15.08;88.98
50282;BME280;36176;51.506;10.272;2022-09-09T05:50:34;98947.16;;;15.19;89.07
50282;BME280;36176;51.506;10.272;2022-09-09T05:53:01;98947.41;;;15.27;87.68
50282;BME280;36176;51.506;10.272;2022-09-09T05:55:47;98939.94;;;15.32;86.46
50282;BME280;36176;51.506;10.272;2022-09-09T05:58:15;98940.31;;;15.39;86.00
50282;BME280;36176;51.506;10.272;2022-09-09T06:00:43;98947.00;;;15.45;85.30
50282;BME280;36176;51.506;10.272;2022-09-09T06:03:20;98947.28;;;15.53;85.96
50282;BME280;36176;51.506;10.272;2022-09-09T06:05:57;98942.44;;;15.58;85.67
50282;BME280;36176;51.506;10.272;2022-09-09T06:08:43;98951.06;;;15.62;84.64
50282;BME280;36176;51.506;10.272;2022-09-09T06:11:17;98943.81;;;15.64;84.30
50282;BME280;36176;51.506;10.272;2022-09-09T06:45:36;98960.06;;;16.30;81.76
50282;BME280;36176;51.506;10.272;2022-09-09T06:48:10;98961.66;;;16.32;81.88
50282;BME280;36176;51.506;10.272;2022-09-09T06:50:38;98961.28;;;16.37;82.48
50282;BME280;36176;51.506;10.272;2022-09-09T06:53:16;98965.53;;;16.40;82.52
50282;BME280;36176;51.506;10.272;2022-09-09T06:55:54;98959.34;;;16.39;82.19
50282;BME280;36176;51.506;10.272;2022-09-09T06:58:42;98965.53;;;16.40;82.03
50282;BME280;36176;51.506;10.272;2022-09-09T07:01:34;98968.00;;;16.43;82.17
50282;BME280;36176;51.506;10.272;2022-09-09T07:04:06;98962.97;;;16.49;82.57
50282;BME280;36176;51.506;10.272;2022-09-09T07:06:46;98966.66;;;16.59;82.56
50282;BME280;36176;51.506;10.272;2022-09-09T07:12:31;98969.06;;;16.85;80.83
50282;BME280;36176;51.506;10.272;2022-09-09T07:15:07;98972.44;;;16.98;81.09
50282;BME280;36176;51.506;10.272;2022-09-09T07:17:34;98962.22;;;17.04;80.20
50282;BME280;36176;51.506;10.272;2022-09-09T07:21:14;98964.03;;;17.14;78.67
50282;BME280;36176;51.506;10.272;2022-09-09T07:23:51;98958.50;;;17.27;79.57
50282;BME280;36176;51.506;10.272;2022-09-09T07:26:34;98965.41;;;17.30;77.37
50282;BME280;36176;51.506;10.272;2022-09-09T07:29:11;98964.78;;;17.37;78.57
50282;BME280;36176;51.506;10.272;2022-09-09T07:32:09;98968.53;;;17.46;78.38
50282;BME280;36176;51.506;10.272;2022-09-09T07:40:21;98972.41;;;17.74;78.74
50282;BME280;36176;51.506;10.272;2022-09-09T08:11:34;98981.81;;;19.03;73.64
50282;BME280;36176;51.506;10.272;2022-09-09T08:15:24;98989.34;;;19.28;72.75
50282;BME280;36176;51.506;10.272;2022-09-09T08:18:35;98992.47;;;19.33;69.60
50282;BME280;36176;51.506;10.272;2022-09-09T08:25:17;98978.19;;;19.43;70.02
50282;BME280;36176;51.506;10.272;2022-09-09T08:28:52;98983.28;;;19.65;71.40
50282;BME280;36176;51.506;10.272;2022-09-09T08:31:52;98983.75;;;20.37;73.43
50282;BME280;36176;51.506;10.272;2022-09-09T08:34:25;98986.28;;;20.86;66.02
50282;BME280;36176;51.506;10.272;2022-09-09T08:37:54;98984.38;;;20.96;65.16
50282;BME280;36176;51.506;10.272;2022-09-09T08:40:36;98988.91;;;20.95;63.81
50282;BME280;36176;51.506;10.272;2022-09-09T08:43:08;98994.94;;;21.07;63.29
50282;BME280;36176;51.506;10.272;2022-09-09T08:46:24;98991.00;;;20.74;64.70
50282;BME280;36176;51.506;10.272;2022-09-09T08:49:02;99002.81;;;20.53;64.54
50282;BME280;36176;51.506;10.272;2022-09-09T08:51:39;98987.47;;;20.26;65.21
50282;BME280;36176;51.506;10.272;2022-09-09T08:54:07;98993.13;;;20.23;65.74
50282;BME280;36176;51.506;10.272;2022-09-09T08:57:03;98990.72;;;20.20;65.07
50282;BME280;36176;51.506;10.272;2022-09-09T08:59:44;99002.25;;;20.03;66.07
50282;BME280;36176;51.506;10.272;2022-09-09T09:11:57;99017.63;;;19.23;67.92
50282;BME280;36176;51.506;10.272;2022-09-09T09:14:39;99007.84;;;19.12;69.96
50282;BME280;36176;51.506;10.272;2022-09-09T09:27:44;98998.44;;;20.62;70.13
50282;BME280;36176;51.506;10.272;2022-09-09T09:31:06;98989.63;;;21.43;66.94
50282;BME280;36176;51.506;10.272;2022-09-09T09:34:08;98987.63;;;22.93;62.63
50282;BME280;36176;51.506;10.272;2022-09-09T09:37:44;98989.38;;;23.86;61.84
50282;BME280;36176;51.506;10.272;2022-09-09T09:44:02;98995.00;;;23.18;56.58
50282;BME280;36176;51.506;10.272;2022-09-09T09:46:31;98990.03;;;22.62;57.54
50282;BME280;36176;51.506;10.272;2022-09-09T09:49:11;98985.16;;;22.14;59.08
50282;BME280;36176;51.506;10.272;2022-09-09T09:51:42;98990.19;;;21.91;59.64
50282;BME280;36176;51.506;10.272;2022-09-09T09:54:49;98994.31;;;21.77;61.27
50282;BME280;36176;51.506;10.272;2022-09-09T09:58:17;98992.31;;;21.79;62.79
50282;BME280;36176;51.506;10.272;2022-09-09T10:01:34;98991.44;;;21.78;61.21
50282;BME280;36176;51.506;10.272;2022-09-09T10:05:18;98988.28;;;21.83;61.29
50282;BME280;36176;51.506;10.272;2022-09-09T10:39:59;98971.50;;;21.89;59.43
50282;BME280;36176;51.506;10.272;2022-09-09T10:50:52;98963.69;;;21.86;55.71
50282;BME280;36176;51.506;10.272;2022-09-09T10:59:22;98962.19;;;22.09;55.21
50282;BME280;36176;51.506;10.272;2022-09-09T11:09:23;98957.38;;;23.32;50.28
50282;BME280;36176;51.506;10.272;2022-09-09T11:13:00;98956.69;;;22.80;51.85
50282;BME280;36176;51.506;10.272;2022-09-09T11:19:44;98963.19;;;22.08;53.21
50282;BME280;36176;51.506;10.272;2022-09-09T11:26:36;98959.28;;;21.59;55.09
50282;BME280;36176;51.506;10.272;2022-09-09T11:38:48;98960.25;;;23.39;51.60
50282;BME280;36176;51.506;10.272;2022-09-09T11:41:33;98956.38;;;23.58;47.41
50282;BME280;36176;51.506;10.272;2022-09-09T11:44:36;98958.25;;;23.82;47.62
50282;BME280;36176;51.506;10.272;2022-09-09T11:47:56;98955.25;;;23.85;47.11
50282;BME280;36176;51.506;10.272;2022-09-09T11:50:35;98949.78;;;23.61;48.01
50282;BME280;36176;51.506;10.272;2022-09-09T11:56:12;98940.91;;;24.57;44.87
50282;BME280;36176;51.506;10.272;2022-09-09T11:59:05;98934.00;;;24.46;44.80
50282;BME280;36176;51.506;10.272;2022-09-09T12:01:59;98936.81;;;24.61;48.03
50282;BME280;36176;51.506;10.272;2022-09-09T12:07:41;98925.44;;;24.66;47.24
50282;BME280;36176;51.506;10.272;2022-09-09T12:12:52;98916.69;;;25.49;43.82
50282;BME280;36176;51.506;10.272;2022-09-09T12:19:44;98917.75;;;25.40;42.00
50282;BME280;36176;51.506;10.272;2022-09-09T12:25:32;98914.03;;;25.41;39.25
50282;BME280;36176;51.506;10.272;2022-09-09T12:28:10;98926.56;;;25.65;42.29
50282;BME280;36176;51.506;10.272;2022-09-09T12:31:10;98926.19;;;25.22;41.10
50282;BME280;36176;51.506;10.272;2022-09-09T12:33:48;98933.03;;;24.70;41.97
50282;BME280;36176;51.506;10.272;2022-09-09T12:36:40;98929.25;;;24.40;43.64
50282;BME280;36176;51.506;10.272;2022-09-09T12:39:52;98929.63;;;24.29;44.04
50282;BME280;36176;51.506;10.272;2022-09-09T12:42:56;98915.22;;;24.84;42.31
50282;BME280;36176;51.506;10.272;2022-09-09T12:46:01;98920.28;;;24.87;41.23
50282;BME280;36176;51.506;10.272;2022-09-09T12:48:54;98903.97;;;24.95;40.14
50282;BME280;36176;51.506;10.272;2022-09-09T12:51:43;98911.63;;;25.23;39.01
50282;BME280;36176;51.506;10.272;2022-09-09T12:54:16;98913.47;;;24.91;38.32
50282;BME280;36176;51.506;10.272;2022-09-09T12:57:00;98902.00;;;25.12;39.82
50282;BME280;36176;51.506;10.272;2022-09-09T12:59:49;98904.38;;;24.84;38.26
50282;BME280;36176;51.506;10.272;2022-09-09T13:02:30;98903.53;;;24.36;40.79
50282;BME280;36176;51.506;10.272;2022-09-09T13:08:41;98888.28;;;23.79;41.74
50282;BME280;36176;51.506;10.272;2022-09-09T13:12:16;98899.25;;;23.28;42.88
50282;BME280;36176;51.506;10.272;2022-09-09T13:20:18;98888.94;;;22.57;43.46
50282;BME280;36176;51.506;10.272;2022-09-09T13:23:36;98890.63;;;22.23;44.99
50282;BME280;36176;51.506;10.272;2022-09-09T13:26:41;98888.03;;;22.14;45.28
50282;BME280;36176;51.506;10.272;2022-09-09T13:29:25;98885.00;;;22.17;45.37
50282;BME280;36176;51.506;10.272;2022-09-09T13:34:56;98884.41;;;22.23;46.23
50282;BME280;36176;51.506;10.272;2022-09-09T13:39:57;98875.72;;;22.45;44.50
50282;BME280;36176;51.506;10.272;2022-09-09T13:42:32;98875.00;;;22.35;43.98
50282;BME280;36176;51.506;10.272;2022-09-09T13:45:05;98876.75;;;22.44;46.04
50282;BME280;36176;51.506;10.272;2022-09-09T13:47:36;98882.00;;;22.46;44.39
50282;BME280;36176;51.506;10.272;2022-09-09T13:50:26;98882.09;;;22.36;43.77
50282;BME280;36176;51.506;10.272;2022-09-09T13:53:13;98883.19;;;22.51;45.55
50282;BME280;36176;51.506;10.272;2022-09-09T13:55:41;98884.47;;;22.90;45.68
50282;BME280;36176;51.506;10.272;2022-09-09T13:58:15;98890.44;;;23.10;44.82
50282;BME280;36176;51.506;10.272;2022-09-09T14:00:45;98886.75;;;23.11;44.62
50282;BME280;36176;51.506;10.272;2022-09-09T14:03:13;98885.03;;;23.10;44.89
50282;BME280;36176;51.506;10.272;2022-09-09T14:05:41;98892.16;;;23.11;45.35
50282;BME280;36176;51.506;10.272;2022-09-09T14:08:28;98897.88;;;23.08;44.47
50282;BME280;36176;51.506;10.272;2022-09-09T14:11:04;98901.94;;;23.04;45.05
50282;BME280;36176;51.506;10.272;2022-09-09T14:13:32;98900.09;;;23.21;44.80
50282;BME280;36176;51.506;10.272;2022-09-09T14:15:59;98892.84;;;23.46;45.31
50282;BME280;36176;51.506;10.272;2022-09-09T14:18:29;98890.13;;;23.46;44.96
50282;BME280;36176;51.506;10.272;2022-09-09T14:20:57;98890.81;;;23.64;46.07
50282;BME280;36176;51.506;10.272;2022-09-09T14:23:25;98882.19;;;23.93;43.95
50282;BME280;36176;51.506;10.272;2022-09-09T14:25:53;98885.47;;;24.20;44.68
50282;BME280;36176;51.506;10.272;2022-09-09T14:28:22;98883.91;;;24.34;44.60
50282;BME280;36176;51.506;10.272;2022-09-09T14:31:09;98881.53;;;24.39;42.84
50282;BME280;36176;51.506;10.272;2022-09-09T14:33:37;98874.44;;;24.30;43.60
50282;BME280;36176;51.506;10.272;2022-09-09T14:36:05;98870.97;;;24.13;43.48
50282;BME280;36176;51.506;10.272;2022-09-09T14:38:36;98880.97;;;23.96;43.73
50282;BME280;36176;51.506;10.272;2022-09-09T14:41:13;98867.81;;;23.85;43.60
50282;BME280;36176;51.506;10.272;2022-09-09T14:43:42;98865.94;;;23.61;44.68
50282;BME280;36176;51.506;10.272;2022-09-09T14:46:14;98866.31;;;23.41;44.73
50282;BME280;36176;51.506;10.272;2022-09-09T14:48:45;98870.19;;;23.14;45.28
50282;BME280;36176;51.506;10.272;2022-09-09T14:51:18;98872.66;;;22.91;46.13
50282;BME280;36176;51.506;10.272;2022-09-09T14:53:46;98875.63;;;22.63;45.66
50282;BME280;36176;51.506;10.272;2022-09-09T14:56:33;98872.66;;;22.40;46.66
50282;BME280;36176;51.506;10.272;2022-09-09T14:59:01;98876.22;;;22.41;47.12
50282;BME280;36176;51.506;10.272;2022-09-09T15:01:31;98871.69;;;22.41;45.86
50282;BME280;36176;51.506;10.272;2022-09-09T15:04:00;98866.56;;;22.30;46.17
50282;BME280;36176;51.506;10.272;2022-09-09T15:06:33;98872.28;;;22.27;45.85
50282;BME280;36176;51.506;10.272;2022-09-09T15:09:02;98867.53;;;22.21;46.47
50282;BME280;36176;51.506;10.272;2022-09-09T15:11:31;98876.75;;;22.18;46.56
50282;BME280;36176;51.506;10.272;2022-09-09T15:14:19;98875.50;;;22.30;46.92
50282;BME280;36176;51.506;10.272;2022-09-09T15:16:53;98882.16;;;22.52;48.23
50282;BME280;36176;51.506;10.272;2022-09-09T15:19:20;98871.59;;;22.67;46.68
50282;BME280;36176;51.506;10.272;2022-09-09T15:21:47;98879.56;;;22.85;47.25
50282;BME280;36176;51.506;10.272;2022-09-09T15:24:15;98866.47;;;22.99;46.70
50282;BME280;36176;51.506;10.272;2022-09-09T15:26:43;98864.09;;;23.04;46.17
50282;BME280;36176;51.506;10.272;2022-09-09T15:29:11;98865.63;;;23.06;44.49
50282;BME280;36176;51.506;10.272;2022-09-09T15:31:39;98865.44;;;23.00;42.84
50282;BME280;36176;51.506;10.272;2022-09-09T15:34:10;98863.53;;;22.92;44.41
50282;BME280;36176;51.506;10.272;2022-09-09T15:36:48;98862.31;;;22.70;43.45
50282;BME280;36176;51.506;10.272;2022-09-09T15:39:17;98859.78;;;22.68;43.49
50282;BME280;36176;51.506;10.272;2022-09-09T15:41:47;98864.66;;;22.65;42.80
50282;BME280;36176;51.506;10.272;2022-09-09T15:44:23;98865.47;;;22.49;43.56
50282;BME280;36176;51.506;10.272;2022-09-09T15:46:57;98860.53;;;22.44;44.35
50282;BME280;36176;51.506;10.272;2022-09-09T15:49:27;98858.13;;;22.33;44.56
50282;BME280;36176;51.506;10.272;2022-09-09T15:51:57;98862.34;;;22.27;42.81
50282;BME280;36176;51.506;10.272;2022-09-09T15:54:25;98863.28;;;22.18;42.41
50282;BME280;36176;51.506;10.272;2022-09-09T15:56:55;98865.25;;;22.08;42.56
50282;BME280;36176;51.506;10.272;2022-09-09T15:59:23;98861.81;;;21.98;42.08
50282;BME280;36176;51.506;10.272;2022-09-09T16:01:51;98867.53;;;21.95;43.07
50282;BME280;36176;51.506;10.272;2022-09-09T16:04:19;98865.72;;;22.03;43.83
50282;BME280;36176;51.506;10.272;2022-09-09T16:06:55;98869.13;;;22.05;43.83
50282;BME280;36176;51.506;10.272;2022-09-09T16:09:25;98865.41;;;22.06;43.40
50282;BME280;36176;51.506;10.272;2022-09-09T16:11:56;98874.41;;;22.15;44.37
50282;BME280;36176;51.506;10.272;2022-09-09T16:14:26;98872.38;;;22.17;44.15
50282;BME280;36176;51.506;10.272;2022-09-09T16:16:54;98876.81;;;22.26;43.95
50282;BME280;36176;51.506;10.272;2022-09-09T16:19:25;98874.59;;;22.22;43.91
50282;BME280;36176;51.506;10.272;2022-09-09T16:21:52;98868.44;;;22.03;43.13
50282;BME280;36176;51.506;10.272;2022-09-09T16:24:20;98868.84;;;21.91;44.33
50282;BME280;36176;51.506;10.272;2022-09-09T16:26:50;98866.25;;;21.81;44.56
50282;BME280;36176;51.506;10.272;2022-09-09T16:29:19;98870.59;;;21.74;45.01
50282;BME280;36176;51.506;10.272;2022-09-09T16:31:53;98440.94;;;18.69;45.00
50282;BME280;36176;51.506;10.272;2022-09-09T16:34:21;98865.25;;;21.56;45.46
50282;BME280;36176;51.506;10.272;2022-09-09T16:36:49;98865.16;;;21.48;45.38
50282;BME280;36176;51.506;10.272;2022-09-09T16:39:36;98867.81;;;21.39;46.35
50282;BME280;36176;51.506;10.272;2022-09-09T16:42:04;98865.41;;;21.36;46.45
50282;BME280;36176;51.506;10.272;2022-09-09T16:44:40;98875.13;;;21.29;45.95
50282;BME280;36176;51.506;10.272;2022-09-09T16:47:30;98875.91;;;21.21;46.55
50282;BME280;36176;51.506;10.272;2022-09-09T16:54:24;98886.19;;;21.08;47.51
50282;BME280;36176;51.506;10.272;2022-09-09T16:56:54;98888.28;;;20.96;47.13
50282;BME280;36176;51.506;10.272;2022-09-09T16:59:41;98898.28;;;20.86;47.43
50282;BME280;36176;51.506;10.272;2022-09-09T17:02:27;98893.78;;;20.77;47.79
50282;BME280;36176;51.506;10.272;2022-09-09T17:05:16;98906.59;;;20.65;48.11
50282;BME280;36176;51.506;10.272;2022-09-09T17:07:48;98914.00;;;20.53;49.08
50282;BME280;36176;51.506;10.272;2022-09-09T17:10:43;98913.22;;;20.43;48.83
50282;BME280;36176;51.506;10.272;2022-09-09T17:17:20;98920.78;;;20.20;49.49
50282;BME280;36176;51.506;10.272;2022-09-09T17:20:07;98916.47;;;20.09;50.42
50282;BME280;36176;51.506;10.272;2022-09-09T17:22:49;98919.00;;;20.01;51.03
50282;BME280;36176;51.506;10.272;2022-09-09T17:25:32;98916.09;;;19.94;50.95
50282;BME280;36176;51.506;10.272;2022-09-09T17:28:25;98916.25;;;19.83;51.17
50282;BME280;36176;51.506;10.272;2022-09-09T17:31:21;98918.53;;;19.78;51.48
50282;BME280;36176;51.506;10.272;2022-09-09T17:34:25;98907.78;;;19.68;52.20
50282;BME280;36176;51.506;10.272;2022-09-09T17:37:24;98909.16;;;19.63;52.58
50282;BME280;36176;51.506;10.272;2022-09-09T17:39:51;98918.06;;;19.53;52.92
50282;BME280;36176;51.506;10.272;2022-09-09T17:49:40;98921.91;;;19.12;55.52
50282;BME280;36176;51.506;10.272;2022-09-09T17:52:21;98928.09;;;19.03;55.78
50282;BME280;36176;51.506;10.272;2022-09-09T17:55:13;98934.47;;;18.92;56.60
50282;BME280;36176;51.506;10.272;2022-09-09T17:57:48;98942.50;;;18.82;56.53
50282;BME280;36176;51.506;10.272;2022-09-09T18:00:54;98941.84;;;18.69;58.16
50282;BME280;36176;51.506;10.272;2022-09-09T18:03:45;98941.28;;;18.56;58.18
50282;BME280;36176;51.506;10.272;2022-09-09T18:06:38;98942.19;;;18.45;58.00
50282;BME280;36176;51.506;10.272;2022-09-09T18:09:23;98937.91;;;18.33;59.41
50282;BME280;36176;51.506;10.272;2022-09-09T18:12:16;98948.72;;;18.21;59.27
50282;BME280;36176;51.506;10.272;2022-09-09T18:14:44;98945.16;;;18.11;59.79
50282;BME280;36176;51.506;10.272;2022-09-09T18:17:15;98943.81;;;17.96;60.35
50282;BME280;36176;51.506;10.272;2022-09-09T18:19:42;98942.88;;;17.85;61.02
50282;BME280;36176;51.506;10.272;2022-09-09T18:22:12;98950.72;;;17.77;60.89
50282;BME280;36176;51.506;10.272;2022-09-09T18:24:53;98948.28;;;17.74;61.76
50282;BME280;36176;51.506;10.272;2022-09-09T18:27:45;98947.97;;;17.68;61.32
50282;BME280;36176;51.506;10.272;2022-09-09T18:30:19;98955.38;;;17.64;61.87
50282;BME280;36176;51.506;10.272;2022-09-09T18:32:53;98964.41;;;17.63;61.94
50282;BME280;36176;51.506;10.272;2022-09-09T18:35:37;98952.88;;;17.62;62.08
50282;BME280;36176;51.506;10.272;2022-09-09T18:38:12;98955.66;;;17.61;61.69
50282;BME280;36176;51.506;10.272;2022-09-09T18:40:50;98954.22;;;17.57;62.23
50282;BME280;36176;51.506;10.272;2022-09-09T18:43:19;98962.06;;;17.49;62.00
50282;BME280;36176;51.506;10.272;2022-09-09T18:45:49;98954.53;;;17.42;62.77
50282;BME280;36176;51.506;10.272;2022-09-09T18:48:19;98961.25;;;17.37;62.59
50282;BME280;36176;51.506;10.272;2022-09-09T18:50:53;98968.44;;;17.36;62.27
50282;BME280;36176;51.506;10.272;2022-09-09T18:54:04;98965.88;;;17.35;62.36
50282;BME280;36176;51.506;10.272;2022-09-09T18:57:41;98962.94;;;17.38;62.05
50282;BME280;36176;51.506;10.272;2022-09-09T19:00:33;98960.03;;;17.41;61.95
50282;BME280;36176;51.506;10.272;2022-09-09T19:03:49;98965.13;;;17.44;61.90
50282;BME280;36176;51.506;10.272;2022-09-09T19:06:36;98968.78;;;17.43;61.94
50282;BME280;36176;51.506;10.272;2022-09-09T19:09:14;98973.03;;;17.46;61.74
50282;BME280;36176;51.506;10.272;2022-09-09T19:11:59;98974.84;;;17.45;61.63